sensor_id;sensor_type;location;lat;lon;timestamp;temperature;humidity
12761;DHT22;6444;49.742;6.114;2022-12-07T00:02:24;5.20;99.90
12761;DHT22;6444;49.742;6.114;2022-12-07T00:04:51;5.10;99.90
12761;DHT22;6444;49.742;6.114;2022-12-07T00:07:18;5.10;99.90
12761;DHT22;6444;49.742;6.114;2022-12-07T00:09:44;5.10;99.90
12761;DHT22;6444;49.742;6.114;2022-12-07T00:12:12;5.10;99.90
12761;DHT22;6444;49.742;6.114;2022-12-07T00:14:38;5.10;99.90
12761;DHT22;6444;49.742;6.114;2022-12-07T00:17:05;4.60;99.90
12761;DHT22;6444;49.742;6.114;2022-12-07T00:19:32;4.30;99.90
12761;DHT22;6444;49.742;6.114;2022-12-07T00:21:58;4.20;99.90
12761;DHT22;6444;49.742;6.114;2022-12-07T00:24:25;4.10;99.90
12761;DHT22;6444;49.742;6.114;2022-12-07T00:26:51;4.10;99.90
12761;DHT22;6444;49.742;6.114;2022-12-07T00:29:19;4.20;99.90
12761;DHT22;6444;49.742;6.114;2022-12-07T00:31:45;4.20;99.90
12761;DHT22;6444;49.742;6.114;2022-12-07T00:34:12;4.00;99.90
12761;DHT22;6444;49.742;6.114;2022-12-07T00:36:38;3.90;99.90
12761;DHT22;6444;49.742;6.114;2022-12-07T00:39:05;3.80;99.90
12761;DHT22;6444;49.742;6.114;2022-12-07T00:41:31;4.10;99.90
12761;DHT22;6444;49.742;6.114;2022-12-07T00:43:58;4.70;99.90
12761;DHT22;6444;49.742;6.114;2022-12-07T00:46:25;4.40;99.90
12761;DHT22;6444;49.742;6.114;2022-12-07T00:48:51;4.80;99.90
12761;DHT22;6444;49.742;6.114;2022-12-07T00:51:18;5.30;99.90
12761;DHT22;6444;49.742;6.114;2022-12-07T00:53:44;5.10;99.90
12761;DHT22;6444;49.742;6.114;2022-12-07T00:56:15;5.20;99.90
12761;DHT22;6444;49.742;6.114;2022-12-07T00:58:41;5.80;99.90
12761;DHT22;6444;49.742;6.114;2022-12-07T01:01:08;5.70;99.90
12761;DHT22;6444;49.742;6.114;2022-12-07T01:03:34;6.00;99.90
12761;DHT22;6444;49.742;6.114;2022-12-07T01:06:01;6.10;99.90
12761;DHT22;6444;49.742;6.114;2022-12-07T01:08:28;5.80;99.90
12761;DHT22;6444;49.742;6.114;2022-12-07T01:11:00;5.50;99.90
12761;DHT22;6444;49.742;6.114;2022-12-07T01:13:27;6.20;99.90
12761;DHT22;6444;49.742;6.114;2022-12-07T01:15:56;5.80;99.90
12761;DHT22;6444;49.742;6.114;2022-12-07T01:18:20;5.60;99.90
12761;DHT22;6444;49.742;6.114;2022-12-07T01:20:56;6.50;99.90
12761;DHT22;6444;49.742;6.114;2022-12-07T01:23:14;6.40;99.90
12761;DHT22;6444;49.742;6.114;2022-12-07T01:25:41;6.10;99.90
12761;DHT22;6444;49.742;6.114;2022-12-07T01:28:07;6.70;99.90
12761;DHT22;6444;49.742;6.114;2022-12-07T01:30:34;7.00;99.90
12761;DHT22;6444;49.742;6.114;2022-12-07T01:33:00;7.20;99.90
12761;DHT22;6444;49.742;6.114;2022-12-07T01:35:27;7.40;99.90
12761;DHT22;6444;49.742;6.114;2022-12-07T01:37:54;7.20;99.90
12761;DHT22;6444;49.742;6.114;2022-12-07T01:40:20;6.00;99.90
12761;DHT22;6444;49.742;6.114;2022-12-07T01:42:47;5.40;99.90
12761;DHT22;6444;49.742;6.114;2022-12-07T01:45:39;5.30;99.90
12761;DHT22;6444;49.742;6.114;2022-12-07T01:48:05;5.80;99.90
12761;DHT22;6444;49.742;6.114;2022-12-07T01:50:31;5.70;99.90
12761;DHT22;6444;49.742;6.114;2022-12-07T01:52:58;6.40;99.90
12761;DHT22;6444;49.742;6.114;2022-12-07T01:55:25;6.90;99.90
12761;DHT22;6444;49.742;6.114;2022-12-07T01:57:52;6.60;99.90
12761;DHT22;6444;49.742;6.114;2022-12-07T02:00:18;6.90;99.90
12761;DHT22;6444;49.742;6.114;2022-12-07T02:03:03;7.10;99.90
12761;DHT22;6444;49.742;6.114;2022-12-07T02:05:26;6.50;99.90
12761;DHT22;6444;49.742;6.114;2022-12-07T02:07:55;7.00;99.90
12761;DHT22;6444;49.742;6.114;2022-12-07T02:10:28;6.60;99.90
12761;DHT22;6444;49.742;6.114;2022-12-07T02:12:50;7.00;99.90
12761;DHT22;6444;49.742;6.114;2022-12-07T02:15:16;7.40;99.90
12761;DHT22;6444;49.742;6.114;2022-12-07T02:17:52;7.70;99.90
12761;DHT22;6444;49.742;6.114;2022-12-07T02:20:19;7.70;99.90
12761;DHT22;6444;49.742;6.114;2022-12-07T02:28:11;7.30;99.90
12761;DHT22;6444;49.742;6.114;2022-12-07T02:30:35;6.80;99.90
12761;DHT22;6444;49.742;6.114;2022-12-07T02:33:14;6.40;99.90
12761;DHT22;6444;49.742;6.114;2022-12-07T02:35:59;6.50;99.90
12761;DHT22;6444;49.742;6.114;2022-12-07T02:38:37;6.00;99.90
12761;DHT22;6444;49.742;6.114;2022-12-07T02:41:12;5.60;99.90
12761;DHT22;6444;49.742;6.114;2022-12-07T02:43:41;5.90;99.90
12761;DHT22;6444;49.742;6.114;2022-12-07T02:46:08;5.70;99.90
12761;DHT22;6444;49.742;6.114;2022-12-07T02:48:33;5.40;99.90
12761;DHT22;6444;49.742;6.114;2022-12-07T02:51:00;5.70;99.90
12761;DHT22;6444;49.742;6.114;2022-12-07T02:53:33;5.60;99.90
12761;DHT22;6444;49.742;6.114;2022-12-07T02:56:05;6.50;99.90
12761;DHT22;6444;49.742;6.114;2022-12-07T03:01:08;6.70;99.90
12761;DHT22;6444;49.742;6.114;2022-12-07T03:03:31;6.90;99.90
12761;DHT22;6444;49.742;6.114;2022-12-07T03:08:50;6.70;99.90
12761;DHT22;6444;49.742;6.114;2022-12-07T03:11:21;6.70;99.90
12761;DHT22;6444;49.742;6.114;2022-12-07T03:14:38;7.30;99.90
12761;DHT22;6444;49.742;6.114;2022-12-07T03:16:39;7.40;99.90
12761;DHT22;6444;49.742;6.114;2022-12-07T03:19:14;7.30;99.90
12761;DHT22;6444;49.742;6.114;2022-12-07T03:21:43;7.00;99.90
12761;DHT22;6444;49.742;6.114;2022-12-07T03:24:09;7.20;99.90
12761;DHT22;6444;49.742;6.114;2022-12-07T03:26:36;6.30;99.90
12761;DHT22;6444;49.742;6.114;2022-12-07T03:29:04;6.10;99.90
12761;DHT22;6444;49.742;6.114;2022-12-07T03:31:29;6.20;99.90
12761;DHT22;6444;49.742;6.114;2022-12-07T03:34:08;6.20;99.90
12761;DHT22;6444;49.742;6.114;2022-12-07T03:36:43;6.10;99.90
12761;DHT22;6444;49.742;6.114;2022-12-07T03:39:13;6.10;99.90
12761;DHT22;6444;49.742;6.114;2022-12-07T03:41:35;6.60;99.90
12761;DHT22;6444;49.742;6.114;2022-12-07T03:44:01;6.30;99.90
12761;DHT22;6444;49.742;6.114;2022-12-07T03:46:42;6.60;99.90
12761;DHT22;6444;49.742;6.114;2022-12-07T03:49:22;6.20;99.90
12761;DHT22;6444;49.742;6.114;2022-12-07T03:54:32;5.60;99.90
12761;DHT22;6444;49.742;6.114;2022-12-07T03:56:57;5.50;99.90
12761;DHT22;6444;49.742;6.114;2022-12-07T03:59:24;5.90;99.90
12761;DHT22;6444;49.742;6.114;2022-12-07T04:01:54;6.80;99.90
12761;DHT22;6444;49.742;6.114;2022-12-07T04:04:20;6.50;99.90
12761;DHT22;6444;49.742;6.114;2022-12-07T04:06:47;6.70;99.90
12761;DHT22;6444;49.742;6.114;2022-12-07T04:09:13;6.60;99.90
12761;DHT22;6444;49.742;6.114;2022-12-07T04:11:40;6.80;99.90
12761;DHT22;6444;49.742;6.114;2022-12-07T04:14:06;7.20;99.90
12761;DHT22;6444;49.742;6.114;2022-12-07T04:16:36;7.70;99.90
12761;DHT22;6444;49.742;6.114;2022-12-07T04:19:03;8.30;99.90
12761;DHT22;6444;49.742;6.114;2022-12-07T04:21:30;8.20;99.90
12761;DHT22;6444;49.742;6.114;2022-12-07T04:23:56;8.40;99.90
12761;DHT22;6444;49.742;6.114;2022-12-07T04:26:23;8.50;99.90
12761;DHT22;6444;49.742;6.114;2022-12-07T04:28:50;7.60;99.90
12761;DHT22;6444;49.742;6.114;2022-12-07T04:31:17;7.50;99.90
12761;DHT22;6444;49.742;6.114;2022-12-07T04:33:44;7.50;99.90
12761;DHT22;6444;49.742;6.114;2022-12-07T04:36:10;7.80;99.90
12761;DHT22;6444;49.742;6.114;2022-12-07T04:38:38;7.70;99.90
12761;DHT22;6444;49.742;6.114;2022-12-07T04:41:07;7.70;99.90
12761;DHT22;6444;49.742;6.114;2022-12-07T04:43:34;7.30;99.90
12761;DHT22;6444;49.742;6.114;2022-12-07T04:46:00;7.30;99.90
12761;DHT22;6444;49.742;6.114;2022-12-07T04:48:27;7.70;99.90
12761;DHT22;6444;49.742;6.114;2022-12-07T04:50:54;8.00;99.90
12761;DHT22;6444;49.742;6.114;2022-12-07T04:53:20;7.60;99.90
12761;DHT22;6444;49.742;6.114;2022-12-07T04:55:48;7.70;99.90
12761;DHT22;6444;49.742;6.114;2022-12-07T04:58:14;7.70;99.90
12761;DHT22;6444;49.742;6.114;2022-12-07T05:00:41;7.10;99.90
12761;DHT22;6444;49.742;6.114;2022-12-07T05:03:07;7.40;99.90
12761;DHT22;6444;49.742;6.114;2022-12-07T05:05:35;7.90;99.90
12761;DHT22;6444;49.742;6.114;2022-12-07T05:08:01;7.80;99.90
12761;DHT22;6444;49.742;6.114;2022-12-07T05:10:28;8.10;99.90
12761;DHT22;6444;49.742;6.114;2022-12-07T05:12:55;8.40;99.90
12761;DHT22;6444;49.742;6.114;2022-12-07T05:15:22;8.60;99.90
12761;DHT22;6444;49.742;6.114;2022-12-07T05:17:49;8.60;99.90
12761;DHT22;6444;49.742;6.114;2022-12-07T05:20:15;8.60;99.90
12761;DHT22;6444;49.742;6.114;2022-12-07T05:22:42;8.70;99.90
12761;DHT22;6444;49.742;6.114;2022-12-07T05:25:09;8.80;99.90
12761;DHT22;6444;49.742;6.114;2022-12-07T05:27:36;8.80;99.90
12761;DHT22;6444;49.742;6.114;2022-12-07T05:30:03;8.50;99.90
12761;DHT22;6444;49.742;6.114;2022-12-07T05:32:29;8.20;99.90
12761;DHT22;6444;49.742;6.114;2022-12-07T05:34:57;8.20;99.90
12761;DHT22;6444;49.742;6.114;2022-12-07T05:37:23;8.20;99.90
12761;DHT22;6444;49.742;6.114;2022-12-07T05:39:50;8.40;99.90
12761;DHT22;6444;49.742;6.114;2022-12-07T05:42:16;8.60;99.90
12761;DHT22;6444;49.742;6.114;2022-12-07T05:44:45;8.50;99.90
12761;DHT22;6444;49.742;6.114;2022-12-07T05:47:11;8.50;99.90
12761;DHT22;6444;49.742;6.114;2022-12-07T05:49:37;8.30;99.90
12761;DHT22;6444;49.742;6.114;2022-12-07T05:52:04;8.50;99.90
12761;DHT22;6444;49.742;6.114;2022-12-07T05:54:30;8.50;99.90
12761;DHT22;6444;49.742;6.114;2022-12-07T05:56:57;8.40;99.90
12761;DHT22;6444;49.742;6.114;2022-12-07T05:59:24;8.50;99.90
12761;DHT22;6444;49.742;6.114;2022-12-07T06:01:54;8.50;99.90
12761;DHT22;6444;49.742;6.114;2022-12-07T06:04:20;8.40;99.90
12761;DHT22;6444;49.742;6.114;2022-12-07T06:06:46;8.20;99.90
12761;DHT22;6444;49.742;6.114;2022-12-07T06:09:13;8.10;99.90
12761;DHT22;6444;49.742;6.114;2022-12-07T06:11:40;8.20;99.90
12761;DHT22;6444;49.742;6.114;2022-12-07T06:14:25;7.90;99.90
12761;DHT22;6444;49.742;6.114;2022-12-07T06:16:51;7.40;99.90
12761;DHT22;6444;49.742;6.114;2022-12-07T06:19:18;7.90;99.90
12761;DHT22;6444;49.742;6.114;2022-12-07T06:21:45;8.60;99.90
12761;DHT22;6444;49.742;6.114;2022-12-07T06:24:12;8.60;99.90
12761;DHT22;6444;49.742;6.114;2022-12-07T06:26:39;8.60;99.90
12761;DHT22;6444;49.742;6.114;2022-12-07T06:29:05;8.80;99.90
12761;DHT22;6444;49.742;6.114;2022-12-07T06:31:32;8.90;99.90
12761;DHT22;6444;49.742;6.114;2022-12-07T06:33:59;8.70;99.90
12761;DHT22;6444;49.742;6.114;2022-12-07T06:36:25;9.00;99.90
12761;DHT22;6444;49.742;6.114;2022-12-07T06:38:52;8.90;99.90
12761;DHT22;6444;49.742;6.114;2022-12-07T06:41:18;8.30;99.90
12761;DHT22;6444;49.742;6.114;2022-12-07T06:43:45;8.00;99.90
12761;DHT22;6444;49.742;6.114;2022-12-07T06:46:12;8.40;99.90
12761;DHT22;6444;49.742;6.114;2022-12-07T06:48:38;8.70;99.90
12761;DHT22;6444;49.742;6.114;2022-12-07T06:51:05;8.90;99.90
12761;DHT22;6444;49.742;6.114;2022-12-07T06:53:32;8.90;99.90
12761;DHT22;6444;49.742;6.114;2022-12-07T06:55:59;9.00;99.90
12761;DHT22;6444;49.742;6.114;2022-12-07T06:58:25;9.00;99.90
12761;DHT22;6444;49.742;6.114;2022-12-07T07:00:53;8.70;99.90
12761;DHT22;6444;49.742;6.114;2022-12-07T07:03:19;8.70;99.90
12761;DHT22;6444;49.742;6.114;2022-12-07T07:05:46;8.60;99.90
12761;DHT22;6444;49.742;6.114;2022-12-07T07:08:13;8.50;99.90
12761;DHT22;6444;49.742;6.114;2022-12-07T07:10:39;8.50;99.90
12761;DHT22;6444;49.742;6.114;2022-12-07T07:13:06;8.60;99.90
12761;DHT22;6444;49.742;6.114;2022-12-07T07:15:33;8.80;99.90
12761;DHT22;6444;49.742;6.114;2022-12-07T07:17:59;8.80;99.90
12761;DHT22;6444;49.742;6.114;2022-12-07T07:20:26;7.90;99.90
12761;DHT22;6444;49.742;6.114;2022-12-07T07:22:55;7.80;99.90
12761;DHT22;6444;49.742;6.114;2022-12-07T07:25:22;8.20;99.90
12761;DHT22;6444;49.742;6.114;2022-12-07T07:27:49;8.60;99.90
12761;DHT22;6444;49.742;6.114;2022-12-07T07:30:16;8.60;99.90
12761;DHT22;6444;49.742;6.114;2022-12-07T07:32:42;8.80;99.90
12761;DHT22;6444;49.742;6.114;2022-12-07T07:35:09;8.90;99.90
12761;DHT22;6444;49.742;6.114;2022-12-07T07:37:36;8.90;99.90
12761;DHT22;6444;49.742;6.114;2022-12-07T07:40:02;9.00;99.90
12761;DHT22;6444;49.742;6.114;2022-12-07T07:42:29;8.90;99.90
12761;DHT22;6444;49.742;6.114;2022-12-07T07:44:55;8.90;99.90
12761;DHT22;6444;49.742;6.114;2022-12-07T07:47:22;8.70;99.90
12761;DHT22;6444;49.742;6.114;2022-12-07T07:49:49;8.20;99.90
12761;DHT22;6444;49.742;6.114;2022-12-07T07:52:15;8.50;99.90
12761;DHT22;6444;49.742;6.114;2022-12-07T07:54:42;8.80;99.90
12761;DHT22;6444;49.742;6.114;2022-12-07T07:57:09;8.90;99.90
12761;DHT22;6444;49.742;6.114;2022-12-07T07:59:36;9.10;99.90
12761;DHT22;6444;49.742;6.114;2022-12-07T08:02:03;9.00;99.90
12761;DHT22;6444;49.742;6.114;2022-12-07T08:04:29;9.10;99.90
12761;DHT22;6444;49.742;6.114;2022-12-07T08:06:56;9.10;99.90
12761;DHT22;6444;49.742;6.114;2022-12-07T08:09:23;9.30;99.90
12761;DHT22;6444;49.742;6.114;2022-12-07T08:11:50;9.20;99.90
12761;DHT22;6444;49.742;6.114;2022-12-07T08:14:16;9.30;99.90
12761;DHT22;6444;49.742;6.114;2022-12-07T08:16:43;9.30;99.90
12761;DHT22;6444;49.742;6.114;2022-12-07T08:19:10;9.30;99.90
12761;DHT22;6444;49.742;6.114;2022-12-07T08:21:37;9.20;99.90
12761;DHT22;6444;49.742;6.114;2022-12-07T08:24:04;9.30;99.90
12761;DHT22;6444;49.742;6.114;2022-12-07T08:26:30;9.40;99.90
12761;DHT22;6444;49.742;6.114;2022-12-07T08:28:58;9.30;99.90
12761;DHT22;6444;49.742;6.114;2022-12-07T08:31:24;9.30;99.90
12761;DHT22;6444;49.742;6.114;2022-12-07T08:33:51;9.50;99.90
12761;DHT22;6444;49.742;6.114;2022-12-07T08:36:18;9.60;99.90
12761;DHT22;6444;49.742;6.114;2022-12-07T08:38:45;9.80;99.90
12761;DHT22;6444;49.742;6.114;2022-12-07T08:41:12;9.70;99.90
12761;DHT22;6444;49.742;6.114;2022-12-07T08:43:38;9.90;99.90
12761;DHT22;6444;49.742;6.114;2022-12-07T08:46:19;9.60;99.90
12761;DHT22;6444;49.742;6.114;2022-12-07T08:48:49;9.60;99.90
12761;DHT22;6444;49.742;6.114;2022-12-07T08:51:11;9.50;99.90
12761;DHT22;6444;49.742;6.114;2022-12-07T08:53:38;9.30;99.90
12761;DHT22;6444;49.742;6.114;2022-12-07T08:56:04;9.50;99.90
12761;DHT22;6444;49.742;6.114;2022-12-07T08:58:31;9.60;99.90
12761;DHT22;6444;49.742;6.114;2022-12-07T09:00:58;9.90;99.90
12761;DHT22;6444;49.742;6.114;2022-12-07T09:03:24;10.30;99.90
12761;DHT22;6444;49.742;6.114;2022-12-07T09:05:52;11.20;99.90
12761;DHT22;6444;49.742;6.114;2022-12-07T09:08:18;11.20;99.90
12761;DHT22;6444;49.742;6.114;2022-12-07T09:10:45;12.10;99.90
12761;DHT22;6444;49.742;6.114;2022-12-07T09:13:12;12.60;99.90
12761;DHT22;6444;49.742;6.114;2022-12-07T09:15:38;13.10;99.90
12761;DHT22;6444;49.742;6.114;2022-12-07T09:18:05;13.30;99.90
12761;DHT22;6444;49.742;6.114;2022-12-07T09:20:31;13.20;99.90
12761;DHT22;6444;49.742;6.114;2022-12-07T09:22:58;13.40;99.90
12761;DHT22;6444;49.742;6.114;2022-12-07T09:25:25;13.70;99.90
12761;DHT22;6444;49.742;6.114;2022-12-07T09:27:57;13.70;99.90
12761;DHT22;6444;49.742;6.114;2022-12-07T09:30:24;13.80;99.90
12761;DHT22;6444;49.742;6.114;2022-12-07T09:32:52;13.10;99.90
12761;DHT22;6444;49.742;6.114;2022-12-07T09:35:17;12.90;99.90
12761;DHT22;6444;49.742;6.114;2022-12-07T09:37:44;12.60;99.90
12761;DHT22;6444;49.742;6.114;2022-12-07T09:40:10;12.50;99.90
12761;DHT22;6444;49.742;6.114;2022-12-07T09:42:38;12.30;99.90
12761;DHT22;6444;49.742;6.114;2022-12-07T09:45:07;12.10;99.90
12761;DHT22;6444;49.742;6.114;2022-12-07T09:47:33;12.00;99.90
12761;DHT22;6444;49.742;6.114;2022-12-07T09:50:12;11.80;99.90
12761;DHT22;6444;49.742;6.114;2022-12-07T09:52:32;11.30;99.90
12761;DHT22;6444;49.742;6.114;2022-12-07T09:54:58;11.40;99.90
12761;DHT22;6444;49.742;6.114;2022-12-07T09:57:29;11.30;99.90
12761;DHT22;6444;49.742;6.114;2022-12-07T09:59:59;11.60;99.90
12761;DHT22;6444;49.742;6.114;2022-12-07T10:02:28;11.50;99.90
12761;DHT22;6444;49.742;6.114;2022-12-07T10:04:51;11.30;99.90
12761;DHT22;6444;49.742;6.114;2022-12-07T10:07:18;11.20;99.90
12761;DHT22;6444;49.742;6.114;2022-12-07T10:09:44;11.20;99.90
12761;DHT22;6444;49.742;6.114;2022-12-07T10:12:11;11.00;99.90
12761;DHT22;6444;49.742;6.114;2022-12-07T10:14:39;10.70;99.90
12761;DHT22;6444;49.742;6.114;2022-12-07T10:17:30;10.80;99.90
12761;DHT22;6444;49.742;6.114;2022-12-07T10:22:53;11.10;99.90
12761;DHT22;6444;49.742;6.114;2022-12-07T10:25:17;10.40;99.90
12761;DHT22;6444;49.742;6.114;2022-12-07T10:27:36;10.50;99.90
12761;DHT22;6444;49.742;6.114;2022-12-07T10:30:03;10.20;99.90
12761;DHT22;6444;49.742;6.114;2022-12-07T10:32:35;9.90;99.90
12761;DHT22;6444;49.742;6.114;2022-12-07T10:35:27;10.40;99.90
12761;DHT22;6444;49.742;6.114;2022-12-07T10:37:55;10.00;99.90
12761;DHT22;6444;49.742;6.114;2022-12-07T10:40:32;10.10;99.90
12761;DHT22;6444;49.742;6.114;2022-12-07T10:48:23;10.00;99.90
12761;DHT22;6444;49.742;6.114;2022-12-07T10:51:02;9.70;99.90
12761;DHT22;6444;49.742;6.114;2022-12-07T10:53:47;10.40;99.90
12761;DHT22;6444;49.742;6.114;2022-12-07T10:59:18;11.40;99.90
12761;DHT22;6444;49.742;6.114;2022-12-07T11:01:54;11.70;99.90
12761;DHT22;6444;49.742;6.114;2022-12-07T11:04:39;12.00;99.90
12761;DHT22;6444;49.742;6.114;2022-12-07T11:07:14;12.30;99.90
12761;DHT22;6444;49.742;6.114;2022-12-07T11:12:33;11.10;99.90
12761;DHT22;6444;49.742;6.114;2022-12-07T11:18:19;11.50;99.90
12761;DHT22;6444;49.742;6.114;2022-12-07T11:31:29;11.80;99.90
12761;DHT22;6444;49.742;6.114;2022-12-07T11:34:00;11.40;99.90
12761;DHT22;6444;49.742;6.114;2022-12-07T11:41:55;11.00;99.90
12761;DHT22;6444;49.742;6.114;2022-12-07T11:44:33;10.20;99.90
12761;DHT22;6444;49.742;6.114;2022-12-07T11:48:04;10.60;99.90
12761;DHT22;6444;49.742;6.114;2022-12-07T11:52:51;10.90;99.90
12761;DHT22;6444;49.742;6.114;2022-12-07T11:58:03;10.50;99.90
12761;DHT22;6444;49.742;6.114;2022-12-07T12:00:26;10.30;99.90
12761;DHT22;6444;49.742;6.114;2022-12-07T12:05:22;11.00;99.90
12761;DHT22;6444;49.742;6.114;2022-12-07T12:07:51;11.20;99.90
12761;DHT22;6444;49.742;6.114;2022-12-07T12:10:30;11.30;99.90
12761;DHT22;6444;49.742;6.114;2022-12-07T12:15:23;11.30;99.90
12761;DHT22;6444;49.742;6.114;2022-12-07T12:20:51;10.20;99.90
12761;DHT22;6444;49.742;6.114;2022-12-07T12:23:19;10.30;99.90
12761;DHT22;6444;49.742;6.114;2022-12-07T12:28:41;10.70;99.90
12761;DHT22;6444;49.742;6.114;2022-12-07T12:31:15;10.90;99.90
12761;DHT22;6444;49.742;6.114;2022-12-07T12:33:47;10.80;99.90
12761;DHT22;6444;49.742;6.114;2022-12-07T12:46:56;11.20;99.90
12761;DHT22;6444;49.742;6.114;2022-12-07T12:51:52;11.30;99.90
12761;DHT22;6444;49.742;6.114;2022-12-07T12:57:15;11.50;99.90
12761;DHT22;6444;49.742;6.114;2022-12-07T13:01:49;11.00;99.90
12761;DHT22;6444;49.742;6.114;2022-12-07T13:06:44;10.30;99.90
12761;DHT22;6444;49.742;6.114;2022-12-07T13:09:27;10.70;99.90
12761;DHT22;6444;49.742;6.114;2022-12-07T13:12:00;10.80;99.90
12761;DHT22;6444;49.742;6.114;2022-12-07T13:14:51;10.80;99.90
12761;DHT22;6444;49.742;6.114;2022-12-07T13:24:57;11.60;99.90
12761;DHT22;6444;49.742;6.114;2022-12-07T13:27:26;11.70;99.90
12761;DHT22;6444;49.742;6.114;2022-12-07T13:29:55;11.50;99.90
12761;DHT22;6444;49.742;6.114;2022-12-07T13:32:24;11.40;99.90
12761;DHT22;6444;49.742;6.114;2022-12-07T13:34:50;11.50;99.90
12761;DHT22;6444;49.742;6.114;2022-12-07T13:37:30;11.60;99.90
12761;DHT22;6444;49.742;6.114;2022-12-07T13:39:59;11.70;99.90
12761;DHT22;6444;49.742;6.114;2022-12-07T13:42:28;11.70;99.90
12761;DHT22;6444;49.742;6.114;2022-12-07T13:44:52;11.80;99.90
12761;DHT22;6444;49.742;6.114;2022-12-07T13:49:59;11.40;99.90
12761;DHT22;6444;49.742;6.114;2022-12-07T13:52:26;11.40;99.90
12761;DHT22;6444;49.742;6.114;2022-12-07T13:55:22;11.70;99.90
12761;DHT22;6444;49.742;6.114;2022-12-07T13:57:28;11.00;99.90
12761;DHT22;6444;49.742;6.114;2022-12-07T13:59:54;10.80;99.90
12761;DHT22;6444;49.742;6.114;2022-12-07T14:02:25;10.90;99.90
12761;DHT22;6444;49.742;6.114;2022-12-07T14:04:48;10.80;99.90
12761;DHT22;6444;49.742;6.114;2022-12-07T14:07:27;10.80;99.90
12761;DHT22;6444;49.742;6.114;2022-12-07T14:09:59;10.20;99.90
12761;DHT22;6444;49.742;6.114;2022-12-07T14:12:26;10.20;99.90
12761;DHT22;6444;49.742;6.114;2022-12-07T14:14:52;10.60;99.90
12761;DHT22;6444;49.742;6.114;2022-12-07T14:17:20;10.80;99.90
12761;DHT22;6444;49.742;6.114;2022-12-07T14:19:50;10.70;99.90
12761;DHT22;6444;49.742;6.114;2022-12-07T14:22:26;10.90;99.90
12761;DHT22;6444;49.742;6.114;2022-12-07T14:24:57;11.00;99.90
12761;DHT22;6444;49.742;6.114;2022-12-07T14:27:21;11.10;99.90
12761;DHT22;6444;49.742;6.114;2022-12-07T14:29:47;10.40;99.90
12761;DHT22;6444;49.742;6.114;2022-12-07T14:34:56;10.10;99.90
12761;DHT22;6444;49.742;6.114;2022-12-07T14:37:22;9.50;99.90
12761;DHT22;6444;49.742;6.114;2022-12-07T14:39:48;9.80;99.90
12761;DHT22;6444;49.742;6.114;2022-12-07T14:42:15;10.10;99.90
12761;DHT22;6444;49.742;6.114;2022-12-07T14:44:42;10.30;99.90
12761;DHT22;6444;49.742;6.114;2022-12-07T14:47:11;10.00;99.90
12761;DHT22;6444;49.742;6.114;2022-12-07T14:49:38;10.30;99.90
12761;DHT22;6444;49.742;6.114;2022-12-07T14:52:05;10.40;99.90
12761;DHT22;6444;49.742;6.114;2022-12-07T14:54:31;10.30;99.90
12761;DHT22;6444;49.742;6.114;2022-12-07T14:56:57;9.80;99.90
12761;DHT22;6444;49.742;6.114;2022-12-07T14:59:25;10.30;99.90
12761;DHT22;6444;49.742;6.114;2022-12-07T15:01:51;10.20;99.90
12761;DHT22;6444;49.742;6.114;2022-12-07T15:04:18;10.30;99.90
12761;DHT22;6444;49.742;6.114;2022-12-07T15:07:03;10.40;99.90
12761;DHT22;6444;49.742;6.114;2022-12-07T15:09:29;10.30;99.90
12761;DHT22;6444;49.742;6.114;2022-12-07T15:11:56;10.10;99.90
12761;DHT22;6444;49.742;6.114;2022-12-07T15:14:22;10.00;99.90
12761;DHT22;6444;49.742;6.114;2022-12-07T15:16:49;10.10;99.90
12761;DHT22;6444;49.742;6.114;2022-12-07T15:19:20;10.10;99.90
12761;DHT22;6444;49.742;6.114;2022-12-07T15:21:46;10.10;99.90
12761;DHT22;6444;49.742;6.114;2022-12-07T15:24:13;10.00;99.90
12761;DHT22;6444;49.742;6.114;2022-12-07T15:26:39;10.00;99.90
12761;DHT22;6444;49.742;6.114;2022-12-07T15:29:06;9.80;99.90
12761;DHT22;6444;49.742;6.114;2022-12-07T15:31:33;9.40;99.90
12761;DHT22;6444;49.742;6.114;2022-12-07T15:33:59;9.70;99.90
12761;DHT22;6444;49.742;6.114;2022-12-07T15:36:27;10.10;99.90
12761;DHT22;6444;49.742;6.114;2022-12-07T15:38:53;10.00;99.90
12761;DHT22;6444;49.742;6.114;2022-12-07T15:41:20;9.90;99.90
12761;DHT22;6444;49.742;6.114;2022-12-07T15:43:46;9.90;99.90
12761;DHT22;6444;49.742;6.114;2022-12-07T15:46:36;9.80;99.90
12761;DHT22;6444;49.742;6.114;2022-12-07T15:49:01;9.50;99.90
12761;DHT22;6444;49.742;6.114;2022-12-07T15:51:28;9.20;99.90
12761;DHT22;6444;49.742;6.114;2022-12-07T15:53:56;9.20;99.90
12761;DHT22;6444;49.742;6.114;2022-12-07T15:56:22;9.20;99.90
12761;DHT22;6444;49.742;6.114;2022-12-07T15:58:48;9.40;99.90
12761;DHT22;6444;49.742;6.114;2022-12-07T16:01:17;9.50;99.90
12761;DHT22;6444;49.742;6.114;2022-12-07T16:03:42;9.50;99.90
12761;DHT22;6444;49.742;6.114;2022-12-07T16:06:09;9.40;99.90
12761;DHT22;6444;49.742;6.114;2022-12-07T16:08:36;9.40;99.90
12761;DHT22;6444;49.742;6.114;2022-12-07T16:11:06;9.50;99.90
12761;DHT22;6444;49.742;6.114;2022-12-07T16:13:33;9.40;99.90
12761;DHT22;6444;49.742;6.114;2022-12-07T16:16:06;9.50;99.90
12761;DHT22;6444;49.742;6.114;2022-12-07T16:18:32;9.30;99.90
12761;DHT22;6444;49.742;6.114;2022-12-07T16:20:58;9.30;99.90
12761;DHT22;6444;49.742;6.114;2022-12-07T16:23:25;8.90;99.90
12761;DHT22;6444;49.742;6.114;2022-12-07T16:25:52;8.90;99.90
12761;DHT22;6444;49.742;6.114;2022-12-07T16:28:19;8.90;99.90
12761;DHT22;6444;49.742;6.114;2022-12-07T16:30:46;9.00;99.90
12761;DHT22;6444;49.742;6.114;2022-12-07T16:33:13;9.10;99.90
12761;DHT22;6444;49.742;6.114;2022-12-07T16:35:40;9.10;99.90
12761;DHT22;6444;49.742;6.114;2022-12-07T16:38:09;9.20;99.90
12761;DHT22;6444;49.742;6.114;2022-12-07T16:40:36;9.20;99.90
12761;DHT22;6444;49.742;6.114;2022-12-07T16:43:03;8.90;99.90
12761;DHT22;6444;49.742;6.114;2022-12-07T16:45:29;9.00;99.90
12761;DHT22;6444;49.742;6.114;2022-12-07T16:47:56;9.20;99.90
12761;DHT22;6444;49.742;6.114;2022-12-07T16:50:23;9.20;99.90
12761;DHT22;6444;49.742;6.114;2022-12-07T16:52:49;9.30;99.90
12761;DHT22;6444;49.742;6.114;2022-12-07T16:55:16;9.30;99.90
12761;DHT22;6444;49.742;6.114;2022-12-07T16:57:42;9.30;99.90
12761;DHT22;6444;49.742;6.114;2022-12-07T17:00:10;8.80;99.90
12761;DHT22;6444;49.742;6.114;2022-12-07T17:02:36;8.80;99.90
12761;DHT22;6444;49.742;6.114;2022-12-07T17:05:03;8.80;99.90
12761;DHT22;6444;49.742;6.114;2022-12-07T17:07:30;8.90;99.90
12761;DHT22;6444;49.742;6.114;2022-12-07T17:09:56;8.90;99.90
12761;DHT22;6444;49.742;6.114;2022-12-07T17:12:23;8.90;99.90
12761;DHT22;6444;49.742;6.114;2022-12-07T17:14:50;8.90;99.90
12761;DHT22;6444;49.742;6.114;2022-12-07T17:17:19;8.30;99.90
12761;DHT22;6444;49.742;6.114;2022-12-07T17:19:46;8.30;99.90
12761;DHT22;6444;49.742;6.114;2022-12-07T17:22:13;7.90;99.90
12761;DHT22;6444;49.742;6.114;2022-12-07T17:24:39;8.10;99.90
12761;DHT22;6444;49.742;6.114;2022-12-07T17:27:06;8.20;99.90
12761;DHT22;6444;49.742;6.114;2022-12-07T17:29:33;8.30;99.90
12761;DHT22;6444;49.742;6.114;2022-12-07T17:31:59;8.60;99.90
12761;DHT22;6444;49.742;6.114;2022-12-07T17:34:26;8.70;99.90
12761;DHT22;6444;49.742;6.114;2022-12-07T17:36:52;8.80;99.90
12761;DHT22;6444;49.742;6.114;2022-12-07T17:39:19;8.80;99.90
12761;DHT22;6444;49.742;6.114;2022-12-07T17:41:46;8.80;99.90